Holland, Michigan
Current Conditions -  °F | °C
As of 8:53 AM on Monday 26 Jan 2015 (Local Time) from KBIV Reporting Station
Clear Clear  
Wind Chill:   Ceiling: Unl
Heat Index: 13°   Visibility: 10mi
Dew Point:   Wind: 5mph
Humidity: 77%   Direction: 80°E
Pressure: 29.98"   Gusts: NA
Location:  42.77°N, 86.1°W
Report Text: KBIV 261353Z AUTO 08004KT 10SM CLR M11/M14 A2998 RMK AO2 SLP164 T11061139
Loading
Personal Weather Stations






























Interactive Weather Map New forecast layout! Learn more

10-Day Weather Forecast

Advertisements
Track Severe Weather on mobile